• pl
  • eng

Awiacja
Kliknij na pogrubioną czerwoną nazwę, aby odkodować depeszę. 08:01 18.02.2018
  • WIND
  • SIGNIFICANT EURO
  • SIGNIFICANT
  • SIGMET
  • AIRMET
  • TAF FC
  • TAF FT
  • METAR GG30
  • METAR GG00


METAR EPBY 180700Z 32003KT 5000 BR OVC002 M03/M03 Q1027 =

METAR EPGD 180700Z 29003KT 9000 FEW034 SCT045 M03/M03 Q1026 =

METAR EPKK 180700Z 32006KT 9999 BKN033 01/M03 Q1024 =

METAR EPKT 180700Z 31003KT 280V340 5000 BR FEW008 SCT010 BKN028
M01/M02 Q1024 =

METAR EPLB 180700Z 31006KT 4000 BR BKN009 OVC016 00/M01 Q1023 =

METAR EPLL 180700Z 32006KT 8000 -SN SCT006 BKN008 M00/M02 Q1025 =

METAR EPMO 180700Z 29006KT 9999 FEW027 M01/M02 Q1025 =

METAR EPPO 180700Z 23002KT 2200 BR FEW010 M04/M04 Q1028 =

METAR EPRA 180700Z 35008KT 7000 SCT009 BKN018 M00/M01 Q1024=

METAR EPRZ 180700Z 25005KT 3500 -SN BR OVC039 M02/M03 Q1023 =

METAR EPSC 180700Z 28003KT 250V310 9999 OVC030 00/M01 Q1028 =

METAR EPSY 180700Z 32006KT 9999 SCT030 M02/M03 Q1024=

METAR EPWA 180700Z 30006KT 9999 FEW009 M01/M02 Q1025 NOSIG=

METAR EPWR 180700Z 36006KT 340V040 9999 SCT009 BKN012 00/M03 Q1027 =

METAR EPZG 180700Z 23002KT 9999 MIFG FEW035 M03/M03 Q1028 =
 METAR EPSY
Lokalizacja:EPSY
Czas:07:00 UTC
Średni kierunek wiatru:320 °
Średnia prędkość wiatru:6 węzłów
Widzialność:10 km i więcej
Pierwsza warstwa chmur:3/8 do 4/8, wysokość podstawy 3000 FT
Temperatura powietrza:-2 °C
Temperatura punktu rosy:-3 °C
Ciśnienie QNH:1024 hPa
Awiacja.imgw.pl jest pogodowym serwisem informacyjnym
Instytutu Meteorologii i Gospodarki Wodnej Państwowego Instytutu Badawczego.
Copyright IMGW PIB 2009-2011© Wszelkie prawa zastrzeżone.